Time;durP1;ratioP1;P1;durP2;ratioP2;P2;SDS_P1;SDS_P2;PMS_P1;PMS_P2;Temp;Humidity;BMP_temperature;BMP_pressure;BME280_temperature;BME280_humidity;BME280_pressure;Samples;Min_cycle;Max_cycle;Signal;HPM_P1;HPM_P2
2024/01/01 00:01:41;;;;;;;40.15;18.73;;;;;;;;;;5122491;27;20085;-75
2024/01/01 00:04:07;;;;;;;45.67;19.80;;;;;;;;;;5128714;27;20042;-75
2024/01/01 00:06:33;;;;;;;46.55;25.17;;;;;;;;;;5165250;27;20061;-74
2024/01/01 00:08:59;;;;;;;44.70;20.75;;;;;;;;;;5140900;27;20512;-76
2024/01/01 00:11:25;;;;;;;54.25;27.42;;;;;;;;;;5139175;27;20427;-75
2024/01/01 00:13:51;;;;;;;51.13;23.52;;;;;;;;;;5121009;27;20047;-76
2024/01/01 00:16:18;;;;;;;43.30;21.10;;;;;;;;;;5138978;27;20305;-76
2024/01/01 00:18:44;;;;;;;42.50;20.75;;;;;;;;;;5156730;27;20089;-75
2024/01/01 00:21:10;;;;;;;43.20;21.60;;;;;;;;;;5121799;27;20046;-76
2024/01/01 00:23:36;;;;;;;56.25;25.25;;;;;;;;;;5156958;27;20107;-78
2024/01/01 00:26:06;;;;;;;45.50;21.08;;;;;;;;;;5156368;27;20121;-77
2024/01/01 00:28:32;;;;;;;47.63;21.38;;;;;;;;;;5156806;27;20042;-76
2024/01/01 00:30:58;;;;;;;42.40;20.30;;;;;;;;;;5138984;27;20042;-78
2024/01/01 00:33:24;;;;;;;45.35;20.15;;;;;;;;;;5138321;27;20525;-77
2024/01/01 00:35:50;;;;;;;39.53;17.70;;;;;;;;;;5156614;27;20110;-76
2024/01/01 00:38:16;;;;;;;40.30;18.08;;;;;;;;;;5156450;27;20050;-78
2024/01/01 00:40:42;;;;;;;42.05;16.05;;;;;;;;;;5120486;27;20043;-77
2024/01/01 00:43:10;;;;;;;38.42;18.17;;;;;;;;;;5121444;27;20049;-77
2024/01/01 00:45:36;;;;;;;37.55;15.95;;;;;;;;;;5155811;27;20397;-77
2024/01/01 00:48:03;;;;;;;40.60;19.23;;;;;;;;;;5137772;27;20432;-77
2024/01/01 00:50:29;;;;;;;35.22;19.13;;;;;;;;;;5120718;27;20035;-78
2024/01/01 00:52:55;;;;;;;35.08;18.05;;;;;;;;;;5120527;27;20474;-80
2024/01/01 00:55:21;;;;;;;43.17;20.75;;;;;;;;;;5137689;27;20042;-78
2024/01/01 00:57:47;;;;;;;36.63;15.43;;;;;;;;;;5155096;27;20108;-78
2024/01/01 01:00:13;;;;;;;38.88;17.40;;;;;;;;;;5155634;27;20047;-78
2024/01/01 01:02:40;;;;;;;38.13;17.85;;;;;;;;;;5155578;27;20390;-78
2024/01/01 01:05:06;;;;;;;39.72;18.90;;;;;;;;;;5119980;27;20038;-76
2024/01/01 01:07:32;;;;;;;45.70;21.95;;;;;;;;;;5155997;27;20047;-80
2024/01/01 01:09:58;;;;;;;50.25;20.83;;;;;;;;;;5120422;27;20116;-78
2024/01/01 01:12:24;;;;;;;43.85;21.05;;;;;;;;;;5137001;27;20065;-78
2024/01/01 01:14:50;;;;;;;46.42;21.95;;;;;;;;;;5137142;27;20121;-78
2024/01/01 01:17:16;;;;;;;48.22;22.58;;;;;;;;;;5137110;27;20050;-78
2024/01/01 01:19:43;;;;;;;57.08;23.95;;;;;;;;;;5120462;27;20106;-78
2024/01/01 01:22:09;;;;;;;56.95;26.52;;;;;;;;;;5156581;27;20039;-76
2024/01/01 01:24:35;;;;;;;54.13;27.23;;;;;;;;;;5156157;27;20046;-78
2024/01/01 01:27:02;;;;;;;55.47;27.45;;;;;;;;;;5120054;27;20054;-77
2024/01/01 01:29:28;;;;;;;;;;;;;;;;;;5155714;27;20069;-78
2024/01/01 01:31:54;;;;;;;60.25;28.55;;;;;;;;;;5155443;27;19970;-77
2024/01/01 01:34:21;;;;;;;57.80;27.13;;;;;;;;;;5136742;27;20039;-79
2024/01/01 01:36:47;;;;;;;61.33;28.75;;;;;;;;;;5155171;27;20046;-78
2024/01/01 01:39:14;;;;;;;59.15;27.40;;;;;;;;;;5155137;27;20039;-78
2024/01/01 01:41:41;;;;;;;61.28;28.38;;;;;;;;;;5155200;27;20122;-80
2024/01/01 01:44:07;;;;;;;54.67;26.55;;;;;;;;;;5119708;27;20497;-79
2024/01/01 01:46:34;;;;;;;55.08;28.60;;;;;;;;;;5155154;27;20039;-78
2024/01/01 01:49:01;;;;;;;43.65;20.58;;;;;;;;;;5154983;27;20512;-78
2024/01/01 01:51:28;;;;;;;47.22;25.35;;;;;;;;;;5155092;27;20050;-78
2024/01/01 01:53:54;;;;;;;48.08;20.27;;;;;;;;;;5137213;27;20173;-79
2024/01/01 01:56:21;;;;;;;38.78;19.08;;;;;;;;;;5155058;27;20047;-79
2024/01/01 01:58:47;;;;;;;39.85;18.95;;;;;;;;;;5137038;27;20118;-80
2024/01/01 02:01:14;;;;;;;34.40;16.95;;;;;;;;;;5136834;27;20419;-79
2024/01/01 02:03:40;;;;;;;33.78;16.52;;;;;;;;;;5136847;27;20064;-79
2024/01/01 02:06:06;;;;;;;34.22;16.48;;;;;;;;;;5136044;27;20051;-79
2024/01/01 02:08:32;;;;;;;32.15;15.40;;;;;;;;;;5156073;27;20475;-80
2024/01/01 02:10:59;;;;;;;23.80;10.65;;;;;;;;;;5139805;27;20081;-79
2024/01/01 02:13:26;;;;;;;29.80;11.93;;;;;;;;;;5124127;27;20082;-79
2024/01/01 02:15:52;;;;;;;24.70;10.40;;;;;;;;;;5159313;27;20039;-79
2024/01/01 02:18:18;;;;;;;26.33;10.85;;;;;;;;;;5124478;27;20099;-78
2024/01/01 02:20:44;;;;;;;19.05;8.82;;;;;;;;;;5141457;27;20081;-78
2024/01/01 02:23:11;;;;;;;19.60;6.28;;;;;;;;;;5141660;27;20055;-79
2024/01/01 02:25:37;;;;;;;20.17;7.72;;;;;;;;;;5125009;27;20481;-79
2024/01/01 02:28:03;;;;;;;20.80;7.45;;;;;;;;;;5161120;27;20034;-80
2024/01/01 02:30:29;;;;;;;12.55;5.20;;;;;;;;;;5144310;27;20128;-80
2024/01/01 02:32:55;;;;;;;17.63;5.80;;;;;;;;;;5163541;27;20423;-78
2024/01/01 02:35:21;;;;;;;16.73;4.70;;;;;;;;;;5130463;27;20099;-79
2024/01/01 02:37:47;;;;;;;10.80;4.05;;;;;;;;;;5162052;27;20053;-80
2024/01/01 02:40:13;;;;;;;10.90;3.42;;;;;;;;;;5142500;27;20045;-79
2024/01/01 02:42:40;;;;;;;10.85;3.47;;;;;;;;;;5159068;27;20047;-79
2024/01/01 02:45:06;;;;;;;14.90;4.70;;;;;;;;;;5140365;27;20043;-80
2024/01/01 02:47:32;;;;;;;16.23;3.13;;;;;;;;;;5140431;27;20389;-80
2024/01/01 02:49:59;;;;;;;13.40;3.15;;;;;;;;;;5141271;27;20046;-81
2024/01/01 02:52:25;;;;;;;10.88;2.70;;;;;;;;;;5158703;27;20138;-80
2024/01/01 02:54:51;;;;;;;9.38;2.40;;;;;;;;;;5141093;27;20491;-78
2024/01/01 02:57:17;;;;;;;8.70;1.92;;;;;;;;;;5140041;27;20057;-79
2024/01/01 02:59:43;;;;;;;6.07;1.70;;;;;;;;;;5157867;27;20043;-79
2024/01/01 03:02:11;;;;;;;8.60;1.67;;;;;;;;;;5139591;27;20057;-79
2024/01/01 03:04:38;;;;;;;6.28;2.00;;;;;;;;;;5158377;27;20046;-78
2024/01/01 03:07:04;;;;;;;8.27;1.80;;;;;;;;;;5158149;27;20066;-78
2024/01/01 03:09:30;;;;;;;9.38;1.85;;;;;;;;;;5158109;27;20083;-80
2024/01/01 03:11:56;;;;;;;6.97;1.90;;;;;;;;;;5123220;27;20088;-79
2024/01/01 03:14:23;;;;;;;7.43;1.35;;;;;;;;;;5158019;27;20047;-80
2024/01/01 03:16:49;;;;;;;8.68;1.25;;;;;;;;;;5139679;27;20051;-78
2024/01/01 03:19:17;;;;;;;9.02;1.52;;;;;;;;;;5122266;27;20054;-76
2024/01/01 03:21:43;;;;;;;5.55;1.00;;;;;;;;;;5157238;27;20402;-76
2024/01/01 03:24:09;;;;;;;4.35;1.13;;;;;;;;;;5139251;27;20046;-80
2024/01/01 03:26:35;;;;;;;12.48;1.40;;;;;;;;;;5158237;27;20483;-76
2024/01/01 03:29:01;;;;;;;8.07;1.52;;;;;;;;;;5122133;27;20051;-77
2024/01/01 03:31:27;;;;;;;6.22;1.02;;;;;;;;;;5139034;27;20050;-75
2024/01/01 03:33:53;;;;;;;5.50;1.10;;;;;;;;;;5157305;27;20047;-76
2024/01/01 03:36:19;;;;;;;9.30;1.23;;;;;;;;;;5138990;27;20188;-80
2024/01/01 03:38:45;;;;;;;5.38;0.80;;;;;;;;;;5122043;27;20482;-80
2024/01/01 03:41:13;;;;;;;7.90;1.38;;;;;;;;;;5138913;27;20047;-78
2024/01/01 03:43:39;;;;;;;9.27;1.23;;;;;;;;;;5138771;27;20133;-77
2024/01/01 03:46:05;;;;;;;8.73;0.98;;;;;;;;;;5138224;27;20046;-77
2024/01/01 03:48:31;;;;;;;7.35;0.80;;;;;;;;;;5156961;27;20043;-77
2024/01/01 03:50:57;;;;;;;10.02;1.77;;;;;;;;;;5157215;27;20039;-78
2024/01/01 03:53:23;;;;;;;6.57;1.00;;;;;;;;;;5157266;27;20051;-77
2024/01/01 03:55:49;;;;;;;11.75;1.60;;;;;;;;;;5122117;27;20478;-77
2024/01/01 03:58:15;;;;;;;10.13;1.17;;;;;;;;;;5139909;27;20039;-80
2024/01/01 04:00:41;;;;;;;9.85;1.20;;;;;;;;;;5139561;27;20047;-77
2024/01/01 04:03:07;;;;;;;6.03;0.88;;;;;;;;;;5139432;27;20053;-77
2024/01/01 04:05:34;;;;;;;6.78;0.88;;;;;;;;;;5138592;27;20039;-77
2024/01/01 04:08:00;;;;;;;7.10;0.77;;;;;;;;;;5157266;27;20133;-77
2024/01/01 04:10:26;;;;;;;6.55;0.90;;;;;;;;;;5138368;27;20080;-79
2024/01/01 04:12:52;;;;;;;8.60;1.10;;;;;;;;;;5138584;27;20051;-80
2024/01/01 04:15:18;;;;;;;7.55;0.85;;;;;;;;;;5157216;27;20042;-82
2024/01/01 04:17:44;;;;;;;8.85;1.00;;;;;;;;;;5139202;27;20058;-78
2024/01/01 04:20:10;;;;;;;6.88;0.80;;;;;;;;;;5139115;27;20107;-78
2024/01/01 04:22:38;;;;;;;6.97;1.70;;;;;;;;;;5121744;27;20043;-79
2024/01/01 04:25:05;;;;;;;9.57;1.15;;;;;;;;;;5157750;27;20053;-78
2024/01/01 04:27:31;;;;;;;6.82;1.00;;;;;;;;;;5121441;27;20077;-78
2024/01/01 04:29:57;;;;;;;8.25;1.33;;;;;;;;;;5138222;27;20459;-76
2024/01/01 04:32:24;;;;;;;9.75;1.05;;;;;;;;;;5137862;27;20089;-78
2024/01/01 04:34:51;;;;;;;10.95;1.15;;;;;;;;;;5138555;27;20427;-78
2024/01/01 04:37:17;;;;;;;8.35;1.20;;;;;;;;;;5138125;27;20432;-79
2024/01/01 04:39:43;;;;;;;10.15;2.00;;;;;;;;;;5156618;27;20043;-79
2024/01/01 04:42:10;;;;;;;7.28;1.13;;;;;;;;;;5156394;27;20394;-78
2024/01/01 04:44:36;;;;;;;11.50;1.47;;;;;;;;;;5156630;27;20050;-79
2024/01/01 04:47:02;;;;;;;9.85;1.40;;;;;;;;;;5137378;27;20046;-77
2024/01/01 04:49:28;;;;;;;8.25;1.00;;;;;;;;;;5155694;27;20390;-76
2024/01/01 04:51:54;;;;;;;6.60;1.48;;;;;;;;;;5156332;27;20085;-76
2024/01/01 04:54:21;;;;;;;6.80;1.20;;;;;;;;;;5155804;27;20180;-75
2024/01/01 04:56:48;;;;;;;9.63;1.20;;;;;;;;;;5156090;27;20375;-76
2024/01/01 04:59:14;;;;;;;11.27;1.20;;;;;;;;;;5121800;27;20054;-75
2024/01/01 05:01:40;;;;;;;9.32;1.00;;;;;;;;;;5123735;27;20299;-72
2024/01/01 05:04:06;;;;;;;9.90;1.33;;;;;;;;;;5128611;27;20042;-73
2024/01/01 05:06:32;;;;;;;6.50;1.00;;;;;;;;;;5158318;27;20055;-72
2024/01/01 05:08:58;;;;;;;11.70;1.75;;;;;;;;;;5156025;27;20497;-71
2024/01/01 05:11:24;;;;;;;10.52;1.70;;;;;;;;;;5137782;27;20050;-71
2024/01/01 05:13:50;;;;;;;17.70;1.80;;;;;;;;;;5137173;27;20053;-71
2024/01/01 05:16:16;;;;;;;8.13;1.38;;;;;;;;;;5120053;27;20134;-70
2024/01/01 05:18:42;;;;;;;5.97;1.85;;;;;;;;;;5136861;27;20047;-70
2024/01/01 05:21:08;;;;;;;13.40;1.33;;;;;;;;;;5137638;27;20089;-71
2024/01/01 05:23:35;;;;;;;9.10;1.30;;;;;;;;;;5155203;27;20057;-71
2024/01/01 05:26:01;;;;;;;11.43;1.40;;;;;;;;;;5136756;27;20171;-70
2024/01/01 05:28:27;;;;;;;10.82;1.30;;;;;;;;;;5136538;27;20046;-71
2024/01/01 05:30:53;;;;;;;11.82;1.70;;;;;;;;;;5119850;27;20047;-70
2024/01/01 05:33:19;;;;;;;12.88;1.65;;;;;;;;;;5155172;27;20046;-71
2024/01/01 05:35:45;;;;;;;15.70;1.80;;;;;;;;;;5137424;27;20043;-72
2024/01/01 05:38:11;;;;;;;12.15;1.60;;;;;;;;;;5155598;27;20049;-71
2024/01/01 05:40:38;;;;;;;14.90;2.60;;;;;;;;;;5155163;27;20049;-72
2024/01/01 05:43:05;;;;;;;12.68;2.00;;;;;;;;;;5136672;27;20130;-72
2024/01/01 05:45:31;;;;;;;13.27;1.60;;;;;;;;;;5140662;27;20043;-73
2024/01/01 05:47:57;;;;;;;12.40;1.35;;;;;;;;;;5141173;27;20445;-73
2024/01/01 05:50:23;;;;;;;10.33;1.67;;;;;;;;;;5107839;27;20055;-72
2024/01/01 05:52:49;;;;;;;9.90;1.63;;;;;;;;;;5159317;27;20043;-72
2024/01/01 05:55:16;;;;;;;11.68;1.52;;;;;;;;;;5141523;27;20401;-72
2024/01/01 05:57:42;;;;;;;15.45;1.92;;;;;;;;;;5159135;27;20374;-72
2024/01/01 06:00:08;;;;;;;9.85;2.22;;;;;;;;;;5140837;27;20108;-74
2024/01/01 06:02:34;;;;;;;10.75;1.63;;;;;;;;;;5159124;27;20053;-72
2024/01/01 06:05:00;;;;;;;10.18;1.75;;;;;;;;;;5159017;27;20049;-72
2024/01/01 06:07:27;;;;;;;8.63;2.15;;;;;;;;;;5159801;27;20415;-71
2024/01/01 06:09:53;;;;;;;18.05;2.40;;;;;;;;;;5140534;27;20042;-72
2024/01/01 06:12:19;;;;;;;11.33;1.90;;;;;;;;;;5124359;27;20043;-72
2024/01/01 06:14:46;;;;;;;13.02;1.90;;;;;;;;;;5140972;27;20125;-72
2024/01/01 06:17:12;;;;;;;8.40;1.73;;;;;;;;;;5159242;27;20470;-78
2024/01/01 06:19:38;;;;;;;13.68;1.92;;;;;;;;;;5141212;27;20075;-71
2024/01/01 06:22:04;;;;;;;11.95;1.98;;;;;;;;;;5140546;27;20050;-72
2024/01/01 06:24:31;;;;;;;12.35;1.80;;;;;;;;;;5140889;27;20038;-71
2024/01/01 06:26:57;;;;;;;7.75;1.30;;;;;;;;;;5140303;27;20126;-72
2024/01/01 06:29:26;;;;;;;14.20;2.65;;;;;;;;;;5158504;27;20053;-73
2024/01/01 06:31:53;;;;;;;12.70;1.88;;;;;;;;;;5140098;27;20042;-73
2024/01/01 06:34:19;;;;;;;12.37;1.73;;;;;;;;;;5139976;27;20038;-72
2024/01/01 06:36:45;;;;;;;13.23;1.88;;;;;;;;;;5158977;27;20410;-73
2024/01/01 06:39:12;;;;;;;11.73;2.08;;;;;;;;;;5158198;27;20394;-72
2024/01/01 06:41:38;;;;;;;15.30;2.75;;;;;;;;;;5139902;27;20051;-70
2024/01/01 06:44:04;;;;;;;16.75;2.28;;;;;;;;;;5122641;27;20046;-72
2024/01/01 06:46:30;;;;;;;10.10;2.17;;;;;;;;;;5158056;27;20050;-72
2024/01/01 06:48:56;;;;;;;12.35;1.80;;;;;;;;;;5139805;27;20051;-73
2024/01/01 06:51:22;;;;;;;12.98;2.20;;;;;;;;;;5123355;27;20042;-74
2024/01/01 06:53:48;;;;;;;12.35;2.50;;;;;;;;;;5158611;27;20074;-73
2024/01/01 06:56:14;;;;;;;8.20;1.60;;;;;;;;;;5139047;27;20057;-72
2024/01/01 06:58:41;;;;;;;12.65;1.90;;;;;;;;;;5158586;27;20088;-73
2024/01/01 07:01:07;;;;;;;11.88;1.88;;;;;;;;;;5139306;27;20046;-72
2024/01/01 07:03:33;;;;;;;7.28;1.00;;;;;;;;;;5140177;27;20043;-72
2024/01/01 07:05:59;;;;;;;8.57;2.65;;;;;;;;;;5158611;27;20039;-73
2024/01/01 07:08:26;;;;;;;15.32;2.13;;;;;;;;;;5138933;27;20058;-72
2024/01/01 07:10:52;;;;;;;11.77;2.97;;;;;;;;;;5139687;27;20401;-73
2024/01/01 07:13:18;;;;;;;13.15;2.40;;;;;;;;;;5157723;27;20099;-72
2024/01/01 07:15:44;;;;;;;13.95;2.25;;;;;;;;;;5157879;27;20065;-72
2024/01/01 07:18:10;;;;;;;17.27;3.23;;;;;;;;;;5157958;27;20047;-73
2024/01/01 07:20:36;;;;;;;8.85;1.63;;;;;;;;;;5139410;27;20045;-75
2024/01/01 07:23:02;;;;;;;12.45;1.70;;;;;;;;;;5139854;27;20047;-73
2024/01/01 07:25:28;;;;;;;8.93;1.77;;;;;;;;;;5139609;27;20459;-73
2024/01/01 07:27:55;;;;;;;13.00;1.55;;;;;;;;;;5139912;27;20043;-74
2024/01/01 07:30:21;;;;;;;12.70;1.58;;;;;;;;;;5163488;27;20050;-70
2024/01/01 07:32:47;;;;;;;14.80;1.75;;;;;;;;;;5165618;27;20067;-73
2024/01/01 07:35:13;;;;;;;11.32;2.28;;;;;;;;;;5161013;27;20042;-74
2024/01/01 07:37:39;;;;;;;9.63;2.10;;;;;;;;;;5139258;27;20054;-72
2024/01/01 07:40:05;;;;;;;13.27;2.00;;;;;;;;;;5157196;27;20050;-76
2024/01/01 07:42:32;;;;;;;9.63;1.75;;;;;;;;;;5157247;27;20053;-72
2024/01/01 07:44:58;;;;;;;17.67;2.63;;;;;;;;;;5138523;27;20042;-74
2024/01/01 07:47:24;;;;;;;15.60;3.35;;;;;;;;;;5139011;27;20047;-73
2024/01/01 07:49:50;;;;;;;14.43;2.30;;;;;;;;;;5138322;27;20099;-74
2024/01/01 07:52:17;;;;;;;10.32;2.33;;;;;;;;;;5138591;27;20427;-73
2024/01/01 07:54:43;;;;;;;11.05;2.45;;;;;;;;;;5138687;27;20126;-73
2024/01/01 07:57:09;;;;;;;9.57;2.35;;;;;;;;;;5139258;27;20053;-72
2024/01/01 07:59:35;;;;;;;14.55;2.85;;;;;;;;;;5139344;27;20058;-73
2024/01/01 08:02:01;;;;;;;11.52;2.75;;;;;;;;;;5139346;27;20443;-73
2024/01/01 08:04:28;;;;;;;16.00;2.78;;;;;;;;;;5157032;27;20038;-74
2024/01/01 08:06:54;;;;;;;10.38;2.65;;;;;;;;;;5138715;27;20405;-74
2024/01/01 08:09:20;;;;;;;15.13;2.38;;;;;;;;;;5139706;27;20053;-73
2024/01/01 08:11:46;;;;;;;17.05;3.33;;;;;;;;;;5138689;27;20038;-74
2024/01/01 08:14:12;;;;;;;9.85;2.58;;;;;;;;;;5157704;27;20393;-73
2024/01/01 08:16:38;;;;;;;13.07;2.97;;;;;;;;;;5158269;27;20042;-74
2024/01/01 08:19:04;;;;;;;12.90;2.63;;;;;;;;;;5158386;27;20054;-74
2024/01/01 08:21:30;;;;;;;13.23;2.50;;;;;;;;;;5158098;27;20042;-75
2024/01/01 08:23:56;;;;;;;12.40;1.85;;;;;;;;;;5122466;27;20050;-73
2024/01/01 08:26:23;;;;;;;14.75;2.65;;;;;;;;;;5122051;27;20042;-73
2024/01/01 08:28:51;;;;;;;9.85;1.88;;;;;;;;;;5158256;27;20046;-75
2024/01/01 08:31:20;;;;;;;10.90;2.17;;;;;;;;;;5157948;27;20198;-74
2024/01/01 08:33:46;;;;;;;13.00;2.20;;;;;;;;;;5157150;27;20047;-73
2024/01/01 08:36:12;;;;;;;13.15;2.10;;;;;;;;;;5121834;27;20076;-73
2024/01/01 08:38:38;;;;;;;11.70;2.35;;;;;;;;;;5156669;27;20047;-73
2024/01/01 08:41:05;;;;;;;11.23;2.30;;;;;;;;;;5120885;27;20043;-73
2024/01/01 08:43:31;;;;;;;8.10;1.92;;;;;;;;;;5156866;27;20382;-73
2024/01/01 08:45:58;;;;;;;10.82;2.08;;;;;;;;;;5155936;27;20035;-74
2024/01/01 08:48:24;;;;;;;17.33;2.45;;;;;;;;;;5155880;27;20057;-72
2024/01/01 08:50:50;;;;;;;10.40;2.05;;;;;;;;;;5156392;27;20382;-73
2024/01/01 08:53:17;;;;;;;13.02;2.65;;;;;;;;;;5155811;27;20054;-75
2024/01/01 08:55:43;;;;;;;9.85;2.00;;;;;;;;;;5137623;27;20046;-73
2024/01/01 08:58:09;;;;;;;11.35;2.53;;;;;;;;;;5120321;27;20367;-73
2024/01/01 09:00:35;;;;;;;11.48;1.98;;;;;;;;;;5137430;27;20098;-75
2024/01/01 09:03:01;;;;;;;7.72;1.98;;;;;;;;;;5137297;27;20042;-75
2024/01/01 09:05:27;;;;;;;11.75;2.72;;;;;;;;;;5137219;27;20046;-76
2024/01/01 09:07:53;;;;;;;7.35;1.88;;;;;;;;;;5137005;27;20043;-75
2024/01/01 09:10:20;;;;;;;7.68;2.25;;;;;;;;;;5120248;27;20123;-73
2024/01/01 09:12:46;;;;;;;10.95;2.83;;;;;;;;;;5136878;27;20138;-74
2024/01/01 09:15:15;;;;;;;11.05;2.63;;;;;;;;;;5137944;27;20053;-75
2024/01/01 09:17:44;;;;;;;11.93;2.40;;;;;;;;;;5137040;27;20042;-74
2024/01/01 09:20:12;;;;;;;9.40;2.08;;;;;;;;;;5137636;27;20047;-75
2024/01/01 09:22:38;;;;;;;11.43;2.22;;;;;;;;;;5155373;27;20092;-73
2024/01/01 09:25:04;;;;;;;12.15;2.13;;;;;;;;;;5136984;27;20099;-74
2024/01/01 09:27:30;;;;;;;9.85;2.08;;;;;;;;;;5137004;27;20050;-74
2024/01/01 09:29:56;;;;;;;15.38;2.60;;;;;;;;;;5137401;27;20042;-75
2024/01/01 09:32:23;;;;;;;14.57;2.92;;;;;;;;;;5155387;27;20091;-74
2024/01/01 09:34:49;;;;;;;10.63;2.25;;;;;;;;;;5119969;27;20047;-75
2024/01/01 09:37:15;;;;;;;15.13;2.42;;;;;;;;;;5120842;27;20057;-74
2024/01/01 09:39:43;;;;;;;8.35;1.95;;;;;;;;;;5155703;27;20086;-75
2024/01/01 09:42:09;;;;;;;10.27;2.22;;;;;;;;;;5155200;27;20069;-75
2024/01/01 09:44:37;;;;;;;9.68;2.08;;;;;;;;;;5119813;27;20053;-76
2024/01/01 09:47:05;;;;;;;14.05;1.98;;;;;;;;;;5137143;27;20421;-73
2024/01/01 09:49:31;;;;;;;10.05;2.22;;;;;;;;;;5155336;27;20181;-74
2024/01/01 09:51:57;;;;;;;13.13;2.78;;;;;;;;;;5154901;27;20046;-74
2024/01/01 09:54:23;;;;;;;9.85;2.40;;;;;;;;;;5136656;27;20057;-73
2024/01/01 09:56:50;;;;;;;9.23;2.10;;;;;;;;;;5119802;27;20444;-74
2024/01/01 09:59:33;;;;;;;16.73;2.60;;;;;;;;;;5121096;27;20489;-74
2024/01/01 10:02:04;;;;;;;9.65;2.30;;;;;;;;;;5144605;27;20061;-74
2024/01/01 10:04:30;;;;;;;12.02;2.13;;;;;;;;;;5142331;27;20042;-73
2024/01/01 10:06:58;;;;;;;12.65;2.10;;;;;;;;;;5120200;27;20083;-72
2024/01/01 10:09:24;;;;;;;14.20;2.80;;;;;;;;;;5154834;27;20503;-73
2024/01/01 10:11:50;;;;;;;10.60;1.80;;;;;;;;;;5136823;27;20046;-74
2024/01/01 10:14:17;;;;;;;12.25;2.00;;;;;;;;;;5120269;27;20078;-73
2024/01/01 10:16:43;;;;;;;9.77;1.75;;;;;;;;;;5154520;27;20042;-73
2024/01/01 10:19:09;;;;;;;13.00;2.22;;;;;;;;;;5155082;27;20470;-72
2024/01/01 10:21:36;;;;;;;8.30;1.55;;;;;;;;;;5119507;27;20137;-73
2024/01/01 10:24:21;;;;;;;13.38;1.90;;;;;;;;;;5154963;27;20047;-74
2024/01/01 10:26:47;;;;;;;9.05;1.38;;;;;;;;;;5154377;27;20486;-76
2024/01/01 10:29:14;;;;;;;10.77;1.85;;;;;;;;;;5154489;27;20043;-73
2024/01/01 10:31:48;;;;;;;6.50;1.27;;;;;;;;;;5156980;27;20077;-74
2024/01/01 10:34:14;;;;;;;10.80;0.90;;;;;;;;;;5158714;27;20047;-74
2024/01/01 10:36:41;;;;;;;7.75;0.95;;;;;;;;;;5140015;27;20082;-73
2024/01/01 10:39:08;;;;;;;10.02;1.38;;;;;;;;;;5158813;27;20042;-73
2024/01/01 10:41:36;;;;;;;4.63;0.82;;;;;;;;;;5139384;27;20083;-76
2024/01/01 10:44:09;;;;;;;8.32;1.13;;;;;;;;;;5158110;27;20043;-73
2024/01/01 10:46:44;;;;;;;12.75;1.02;;;;;;;;;;5158016;27;20089;-72
2024/01/01 10:49:14;;;;;;;9.52;2.50;;;;;;;;;;5139702;27;20038;-72
2024/01/01 10:51:41;;;;;;;8.13;0.80;;;;;;;;;;5157966;27;20054;-74
2024/01/01 10:54:07;;;;;;;;;;;;;;;;;;5158296;27;20082;-73
2024/01/01 10:56:39;;;;;;;3.57;0.80;;;;;;;;;;5157849;27;19989;-72
2024/01/01 10:59:11;;;;;;;4.88;0.90;;;;;;;;;;5139065;27;20043;-72
2024/01/01 11:01:38;;;;;;;6.00;0.60;;;;;;;;;;5157731;27;20137;-72
2024/01/01 11:04:05;;;;;;;5.05;0.52;;;;;;;;;;5157630;27;20428;-72
2024/01/01 11:06:33;;;;;;;8.57;0.77;;;;;;;;;;5158357;27;20065;-73
2024/01/01 11:09:19;;;;;;;6.93;0.93;;;;;;;;;;5157340;27;20111;-73
2024/01/01 11:11:54;;;;;;;7.85;1.20;;;;;;;;;;5157491;27;20501;-73
2024/01/01 11:14:31;;;;;;;8.38;1.15;;;;;;;;;;5157514;27;20448;-74
2024/01/01 11:16:58;;;;;;;6.15;0.60;;;;;;;;;;5121870;27;20047;-73
2024/01/01 11:19:41;;;;;;;7.35;0.52;;;;;;;;;;5139152;27;20058;-70
2024/01/01 11:22:19;;;;;;;5.22;0.40;;;;;;;;;;5157590;27;20417;-72
2024/01/01 11:24:46;;;;;;;5.45;0.50;;;;;;;;;;5157137;27;20359;-74
2024/01/01 11:27:28;;;;;;;7.10;0.88;;;;;;;;;;5157342;27;20482;-73
2024/01/01 11:29:59;;;;;;;3.70;0.68;;;;;;;;;;5157896;27;20434;-73
2024/01/01 11:32:25;;;;;;;8.52;0.82;;;;;;;;;;5157474;27;20035;-72
2024/01/01 11:35:06;;;;;;;7.32;1.08;;;;;;;;;;5156680;27;20485;-72
2024/01/01 11:37:33;;;;;;;7.75;1.05;;;;;;;;;;5138898;27;20038;-72
2024/01/01 11:39:59;;;;;;;9.32;1.10;;;;;;;;;;5138907;27;20042;-75
2024/01/01 11:42:26;;;;;;;12.38;1.50;;;;;;;;;;5139181;27;20122;-74
2024/01/01 11:45:04;;;;;;;10.40;1.13;;;;;;;;;;5157599;27;20104;-72
2024/01/01 11:47:30;;;;;;;10.65;1.52;;;;;;;;;;5156746;27;20042;-73
2024/01/01 11:49:57;;;;;;;9.27;0.90;;;;;;;;;;5156770;27;20065;-73
2024/01/01 11:52:23;;;;;;;7.88;0.57;;;;;;;;;;5121245;27;20498;-74
2024/01/01 11:54:49;;;;;;;8.73;1.00;;;;;;;;;;5156518;27;20049;-74
2024/01/01 11:57:15;;;;;;;7.22;1.15;;;;;;;;;;5157033;27;20042;-74
2024/01/01 11:59:42;;;;;;;8.00;0.70;;;;;;;;;;5139027;27;20099;-74
2024/01/01 12:02:10;;;;;;;9.45;1.00;;;;;;;;;;5156243;27;20046;-73
2024/01/01 12:04:36;;;;;;;7.05;0.60;;;;;;;;;;5138714;27;20125;-73
2024/01/01 12:07:02;;;;;;;6.60;0.57;;;;;;;;;;5137988;27;20068;-75
2024/01/01 12:09:28;;;;;;;4.53;0.50;;;;;;;;;;5117742;27;20126;-74
2024/01/01 12:12:12;;;;;;;8.88;0.77;;;;;;;;;;5117464;27;20054;-75
2024/01/01 12:14:39;;;;;;;5.88;0.73;;;;;;;;;;5134716;27;20118;-74
2024/01/01 12:17:08;;;;;;;7.90;0.50;;;;;;;;;;5134181;27;20394;-74
2024/01/01 12:19:34;;;;;;;6.82;0.70;;;;;;;;;;5135417;27;20051;-74
2024/01/01 12:22:00;;;;;;;6.45;0.80;;;;;;;;;;5134172;27;20043;-74
2024/01/01 12:24:27;;;;;;;8.80;1.25;;;;;;;;;;5135316;27;20066;-72
2024/01/01 12:27:01;;;;;;;9.52;0.65;;;;;;;;;;5137786;27;20043;-72
2024/01/01 12:29:29;;;;;;;6.57;0.70;;;;;;;;;;5139797;27;20051;-72
2024/01/01 12:31:55;;;;;;;7.47;0.82;;;;;;;;;;5137127;27;20126;-72
2024/01/01 12:34:27;;;;;;;4.85;0.85;;;;;;;;;;5134976;27;20375;-71
2024/01/01 12:36:54;;;;;;;11.30;0.90;;;;;;;;;;5117201;27;20070;-73
2024/01/01 12:39:20;;;;;;;10.00;0.77;;;;;;;;;;5135331;27;20420;-73
2024/01/01 12:41:47;;;;;;;7.95;1.00;;;;;;;;;;5134212;27;20054;-75
2024/01/01 12:44:13;;;;;;;6.85;0.65;;;;;;;;;;5133934;27;20038;-75
2024/01/01 12:46:40;;;;;;;5.95;0.70;;;;;;;;;;5135047;27;20050;-74
2024/01/01 12:49:06;;;;;;;7.70;0.70;;;;;;;;;;5133681;27;20096;-77
2024/01/01 12:51:32;;;;;;;9.23;1.00;;;;;;;;;;5133739;27;20051;-72
2024/01/01 12:53:59;;;;;;;11.48;1.05;;;;;;;;;;5133847;27;20054;-74
2024/01/01 12:56:25;;;;;;;7.35;0.63;;;;;;;;;;5133739;27;20054;-73
2024/01/01 12:58:51;;;;;;;5.68;0.85;;;;;;;;;;5135308;27;20039;-74
2024/01/01 13:01:18;;;;;;;8.75;0.80;;;;;;;;;;5134620;27;20047;-73
2024/01/01 13:03:44;;;;;;;9.73;0.95;;;;;;;;;;5134834;27;20384;-73
2024/01/01 13:06:15;;;;;;;5.60;0.47;;;;;;;;;;5133380;27;20596;-74
2024/01/01 13:08:42;;;;;;;10.98;0.77;;;;;;;;;;5133565;27;20521;-74
2024/01/01 13:11:10;;;;;;;8.07;1.15;;;;;;;;;;5134067;27;20054;-74
2024/01/01 13:13:36;;;;;;;5.97;0.55;;;;;;;;;;5134778;27;20047;-75
2024/01/01 13:16:03;;;;;;;7.20;0.80;;;;;;;;;;5134524;27;20050;-73
2024/01/01 13:18:29;;;;;;;7.50;0.85;;;;;;;;;;5134414;27;20051;-74
2024/01/01 13:20:56;;;;;;;9.77;1.27;;;;;;;;;;5133565;28;20538;-74
2024/01/01 13:23:22;;;;;;;8.57;0.57;;;;;;;;;;5116431;28;20050;-73
2024/01/01 13:25:49;;;;;;;9.00;0.70;;;;;;;;;;5133668;28;20071;-74
2024/01/01 13:28:24;;;;;;;5.57;0.70;;;;;;;;;;5133179;28;20082;-74
2024/01/01 13:30:50;;;;;;;7.93;0.57;;;;;;;;;;5134746;27;20047;-73
2024/01/01 13:33:18;;;;;;;7.43;0.68;;;;;;;;;;5133359;28;20380;-73
2024/01/01 13:35:44;;;;;;;6.75;0.60;;;;;;;;;;5134381;28;20379;-73
2024/01/01 13:38:10;;;;;;;10.85;1.23;;;;;;;;;;5133679;28;20051;-73
2024/01/01 13:40:39;;;;;;;11.55;1.10;;;;;;;;;;5134212;28;20130;-75
2024/01/01 13:43:06;;;;;;;9.68;0.93;;;;;;;;;;5134597;27;20440;-75
2024/01/01 13:45:32;;;;;;;9.63;1.00;;;;;;;;;;5134298;28;20049;-73
2024/01/01 13:47:58;;;;;;;12.02;0.90;;;;;;;;;;5134353;28;20045;-75
2024/01/01 13:50:24;;;;;;;7.60;1.17;;;;;;;;;;5136583;28;20082;-74
2024/01/01 13:52:50;;;;;;;11.50;1.67;;;;;;;;;;5134958;28;20090;-75
2024/01/01 13:55:20;;;;;;;9.23;1.20;;;;;;;;;;5133259;28;20051;-74
2024/01/01 13:57:47;;;;;;;8.88;0.93;;;;;;;;;;5132935;28;20039;-74
2024/01/01 14:00:14;;;;;;;10.93;1.00;;;;;;;;;;5116034;28;20526;-75
2024/01/01 14:02:41;;;;;;;7.97;0.85;;;;;;;;;;5132972;28;20047;-74
2024/01/01 14:05:07;;;;;;;;;;;;;;;;;;5136288;27;20387;-74
2024/01/01 14:07:33;;;;;;;7.65;0.90;;;;;;;;;;5141757;27;19919;-72
2024/01/01 14:10:00;;;;;;;13.43;1.93;;;;;;;;;;5141204;27;20161;-73
2024/01/01 14:12:27;;;;;;;10.35;1.23;;;;;;;;;;5158719;27;20050;-72
2024/01/01 14:14:53;;;;;;;10.77;0.70;;;;;;;;;;5141005;27;20078;-74
2024/01/01 14:17:20;;;;;;;9.65;0.82;;;;;;;;;;5159499;27;20384;-75
2024/01/01 14:19:46;;;;;;;11.50;1.05;;;;;;;;;;5158479;27;20050;-73
2024/01/01 14:22:12;;;;;;;10.13;1.43;;;;;;;;;;5123054;27;20133;-74
2024/01/01 14:24:39;;;;;;;5.93;0.70;;;;;;;;;;5158565;27;20550;-74
2024/01/01 14:27:09;;;;;;;8.98;1.15;;;;;;;;;;5122951;27;20280;-73
2024/01/01 14:29:36;;;;;;;9.30;0.73;;;;;;;;;;5140857;27;20054;-74
2024/01/01 14:32:05;;;;;;;9.45;0.85;;;;;;;;;;5139959;27;20142;-74